Airport ICAO


00:49 UTC

2°C

Clear skies


An affordable passengers' Moving Map for your aircraft. Made for the iPad and the iPhone
More information here

EGKA Shoreham


Shoreham By Sea UNITED KINGDOM   VFR CAVOK


METAR EGKA 221950Z 02009KT CAVOK 02/M04 Q1022 4h59min

TAF EGKA 221656Z 2218/2220 06009KT 9999 FEW040 PROB30 TEMPO 2218/2220 8000 7h53min





NOTAMS

OPEN